Terminal Aerodrome Forecast
Issued by NWS Boston, MA

Home | Current Version | Previous Version | Text Only | Print | Product List | Glossary On
Versions: 1 2 3 4 5 6 7 8 9 10 11 12 13 14 15 16 17 18 19 20 21 22
000
FTUS41 KBOX 211129
TAFORH
TAF
KORH 211129Z 2112/2212 23013KT 2SM BR BKN003
     FM211400 23013G20KT P6SM SCT003 SCT060
     FM212100 25013G22KT P6SM FEW060
     FM220300 31010G17KT P6SM BKN050
     FM220800 35010KT P6SM BKN070
     FM221100 01006KT P6SM BKN080=

USA.gov is the U.S. government's official web portal to all federal, state and local government web resources and services.